Home > Products > Valid Products > MTR

000
SAUS46 KSGX 030353
MTRCZZ
METAR KCZZ 030352Z AUTO 20005KT 21/16 A2990 RMK AO1 SLP090 T02060156





000
SAUS46 KSGX 030254
MTRCZZ
METAR KCZZ 030252Z AUTO 20005KT 23/16 A2989 RMK AO1 SLP087 T02330161
53004





000
SAUS46 KSGX 030254
MTRCZZ
METAR KCZZ 030252Z AUTO 20005KT 23/16 A2989 RMK AO1 SLP087 T02330161
53004





000
SAUS46 KSGX 030154
MTRCZZ
METAR KCZZ 030152Z AUTO 21010KT 26/16 A2988 RMK AO1 SLP087 T02610161





000
SAUS46 KSGX 030154
MTRCZZ
METAR KCZZ 030152Z AUTO 21010KT 26/16 A2988 RMK AO1 SLP087 T02610161





000
SAUS46 KSGX 030053
MTRCZZ
METAR KCZZ 030052Z AUTO 22014KT 29/16 A2988 RMK AO1 SLP086 T02890161





000
SAUS46 KSGX 030053
MTRCZZ
METAR KCZZ 030052Z AUTO 22014KT 29/16 A2988 RMK AO1 SLP086 T02890161





000
SAUS46 KSGX 022353
MTRCZZ
METAR KCZZ 022352Z AUTO 21014KT 32/14 A2988 RMK AO1 SLP083 T03170144
10344 20311 58009





000
SAUS46 KSGX 022253
MTRCZZ
METAR KCZZ 022252Z AUTO 23014G19KT 33/11 A2989 RMK AO1 SLP084
T03330106





000
SAUS46 KSGX 022153
MTRCZZ
METAR KCZZ 022152Z AUTO 21013G23KT 33/09 A2990 RMK AO1 SLP089
T03280094





000
SAUS46 KSGX 022053
MTRCZZ
METAR KCZZ 022052Z AUTO 22018KT 33/06 A2991 RMK AO1 SLP091 T03330061
58009





000
SAUS46 KSGX 022053
MTRCZZ
METAR KCZZ 022052Z AUTO 22018KT 33/06 A2991 RMK AO1 SLP091 T03330061
58009





000
SAUS46 KSGX 021953
MTRCZZ
METAR KCZZ 021952Z AUTO 23013KT 33/06 A2992 RMK AO1 SLP095 T03330056





000
SAUS46 KSGX 021853
MTRCZZ
METAR KCZZ 021852Z AUTO 20009KT 32/09 A2994 RMK AO1 SLP102 T03170089





000
SAUS46 KSGX 021853
MTRCZZ
METAR KCZZ 021852Z AUTO 20009KT 32/09 A2994 RMK AO1 SLP102 T03170089





000
SAUS46 KSGX 021753
MTRCZZ
METAR KCZZ 021752Z AUTO 23009KT 31/10 A2994 RMK AO1 SLP101 T03060100
10317 20117 58004





000
SAUS46 KSGX 021753
MTRCZZ
METAR KCZZ 021752Z AUTO 23009KT 31/10 A2994 RMK AO1 SLP101 T03060100
10317 20117 58004





000
SAUS46 KSGX 021653
MTRCZZ
METAR KCZZ 021652Z AUTO 19005KT 31/07 A2994 RMK AO1 SLP101 T03060072





000
SAUS46 KSGX 021553
MTRCZZ
METAR KCZZ 021552Z AUTO VRB03KT 28/06 A2995 RMK AO1 SLP104 T02830056





000
SAUS46 KSGX 021553
MTRCZZ
METAR KCZZ 021552Z AUTO VRB03KT 28/06 A2995 RMK AO1 SLP104 T02830056





000
SAUS46 KSGX 021453
MTRCZZ
METAR KCZZ 021452Z AUTO 00000KT 22/07 A2995 RMK AO1 SLP106 T02220067
51011





000
SAUS46 KSGX 021353
MTRCZZ
METAR KCZZ 021352Z AUTO 03003KT 14/06 A2994 RMK AO1 SLP108 T01440056





000
SAUS46 KSGX 021253
MTRCZZ
METAR KCZZ 021252Z AUTO 04006KT 12/06 A2992 RMK AO1 SLP100 T01170061





000
SAUS46 KSGX 021153
MTRCZZ
METAR KCZZ 021152Z AUTO 03004KT 13/06 A2991 RMK AO1 SLP098 T01280061
10183 20122 57011





000
SAUS46 KSGX 021053
MTRCZZ
METAR KCZZ 021052Z AUTO 05004KT 15/09 A2992 RMK AO1 SLP098 T01500094





000
SAUS46 KSGX 020953
MTRCZZ
METAR KCZZ 020952Z AUTO 03004KT 16/11 A2994 RMK AO1 SLP102 T01560111





000
SAUS46 KSGX 020853
MTRCZZ
METAR KCZZ 020852Z AUTO 05006KT 16/13 A2995 RMK AO1 SLP106 T01560128
58004





000
SAUS46 KSGX 020753
MTRCZZ
METAR KCZZ 020752Z AUTO 00000KT 17/13 A2995 RMK AO1 SLP106 T01670128
403390117





000
SAUS46 KSGX 020653
MTRCZZ
METAR KCZZ 020652Z AUTO 03003KT 17/13 A2996 RMK AO1 SLP109 T01670133





000
SAUS46 KSGX 020653
MTRCZZ
METAR KCZZ 020652Z AUTO 03003KT 17/13 A2996 RMK AO1 SLP109 T01670133





000
SAUS46 KSGX 020553
MTRCZZ
METAR KCZZ 020552Z AUTO 00000KT 18/14 A2996 RMK AO1 SLP108 T01830139
10306 20183 50007





000
SAUS46 KSGX 020553
MTRCZZ
METAR KCZZ 020552Z AUTO 00000KT 18/14 A2996 RMK AO1 SLP108 T01830139
10306 20183 50007





000
SAUS46 KSGX 020453
MTRCZZ
METAR KCZZ 020452Z AUTO 00000KT 20/15 A2996 RMK AO1 SLP109 T02000150





000
SAUS46 KSGX 020353
MTRCZZ
METAR KCZZ 020352Z AUTO 23004KT 21/16 A2995 RMK AO1 SLP108 T02110156





000
SAUS46 KSGX 020253
MTRCZZ
METAR KCZZ 020252Z AUTO 19007KT 24/16 A2994 RMK AO1 SLP104 T02390161
53001





000
SAUS46 KSGX 020153
MTRCZZ
METAR KCZZ 020152Z AUTO 21011KT 28/16 A2993 RMK AO1 SLP102 T02780161





000
SAUS46 KSGX 020053
MTRCZZ
METAR KCZZ 020052Z AUTO 20010KT 30/16 A2992 RMK AO1 SLP100 T03000156





000
SAUS46 KSGX 020053
MTRCZZ
METAR KCZZ 020052Z AUTO 20010KT 30/16 A2992 RMK AO1 SLP100 T03000156





000
SAUS46 KSGX 012353
MTRCZZ
METAR KCZZ 012352Z AUTO 22010KT 29/16 A2994 RMK AO1 SLP106 T02940156
10339 20294 56009





000
SAUS46 KSGX 012353
MTRCZZ
METAR KCZZ 012352Z AUTO 22010KT 29/16 A2994 RMK AO1 SLP106 T02940156
10339 20294 56009





000
SAUS46 KSGX 012253
MTRCZZ
METAR KCZZ 012252Z AUTO 22011KT 31/11 A2994 RMK AO1 SLP107 T03060111





000
SAUS46 KSGX 012153
MTRCZZ
METAR KCZZ 012152Z AUTO 22013G19KT 33/06 A2995 RMK AO1 SLP106
T03330056





000
SAUS46 KSGX 012053
MTRCZZ
METAR KCZZ 012052Z AUTO 22009KT 32/08 A2996 RMK AO1 SLP111 T03220083
58008





000
SAUS46 KSGX 011953
MTRCZZ
METAR KCZZ 011952Z AUTO 24009KT 33/11 A2998 RMK AO1 SLP115 T03280111





000
SAUS46 KSGX 011953
MTRCZZ
METAR KCZZ 011952Z AUTO 24009KT 33/11 A2998 RMK AO1 SLP115 T03280111





000
SAUS46 KSGX 011853
MTRCZZ
METAR KCZZ 011852Z AUTO 22011KT 33/08 A2998 RMK AO1 SLP115 T03330083





000
SAUS46 KSGX 011753
MTRCZZ
METAR KCZZ 011752Z AUTO VRB05KT 33/05 A2999 RMK AO1 SLP117 T03280050
10328 20117 56010





000
SAUS46 KSGX 011753
MTRCZZ
METAR KCZZ 011752Z AUTO VRB05KT 33/05 A2999 RMK AO1 SLP117 T03280050
10328 20117 56010





000
SAUS46 KSGX 011653
MTRCZZ
METAR KCZZ 011652Z AUTO 16004KT 31/07 A3000 RMK AO1 SLP121 T03060067





000
SAUS46 KSGX 011553
MTRCZZ
METAR KCZZ 011552Z AUTO 00000KT 27/06 A3001 RMK AO1 SLP127 T02670056





000
SAUS46 KSGX 011553
MTRCZZ
METAR KCZZ 011552Z AUTO 00000KT 27/06 A3001 RMK AO1 SLP127 T02670056





000
SAUS46 KSGX 011453
MTRCZZ
METAR KCZZ 011452Z AUTO 00000KT 22/06 A3002 RMK AO1 SLP133 T02170061
51008





000
SAUS46 KSGX 011453
MTRCZZ
METAR KCZZ 011452Z AUTO 00000KT 22/06 A3002 RMK AO1 SLP133 T02170061
51008





000
SAUS46 KSGX 011353
MTRCZZ
METAR KCZZ 011352Z AUTO 05006KT 16/06 A3001 RMK AO1 SLP132 T01560061





000
SAUS46 KSGX 011353
MTRCZZ
METAR KCZZ 011352Z AUTO 05006KT 16/06 A3001 RMK AO1 SLP132 T01560061





000
SAUS46 KSGX 011253
MTRCZZ
METAR KCZZ 011252Z AUTO 04006KT 14/06 A3001 RMK AO1 SLP127 T01440056





000
SAUS46 KSGX 011253
MTRCZZ
METAR KCZZ 011252Z AUTO 04006KT 14/06 A3001 RMK AO1 SLP127 T01440056





000
SAUS46 KSGX 011153
MTRCZZ
METAR KCZZ 011152Z AUTO 05005KT 13/06 A3000 RMK AO1 SLP124 T01280056
10189 20128 56006





000
SAUS46 KSGX 011053
MTRCZZ
METAR KCZZ 011052Z AUTO 05006KT 14/08 A3000 RMK AO1 SLP124 T01390078





000
SAUS46 KSGX 010953
MTRCZZ
METAR KCZZ 010952Z AUTO 04004KT 16/08 A3001 RMK AO1 SLP127 T01560083





000
SAUS46 KSGX 010853
MTRCZZ
METAR KCZZ 010852Z AUTO 05005KT 16/09 A3002 RMK AO1 SLP129 T01610094
58002





000
SAUS46 KSGX 010853
MTRCZZ
METAR KCZZ 010852Z AUTO 05005KT 16/09 A3002 RMK AO1 SLP129 T01610094
58002





000
SAUS46 KSGX 010753
MTRCZZ
METAR KCZZ 010752Z AUTO 06005KT 17/11 A3003 RMK AO1 SLP132 T01670111
403390156





000
SAUS46 KSGX 010653
MTRCZZ
METAR KCZZ 010652Z AUTO 03005KT 17/11 A3003 RMK AO1 SLP133 T01720111





000
SAUS46 KSGX 010553
MTRCZZ
METAR KCZZ 010552Z AUTO 03004KT 19/13 A3002 RMK AO1 SLP131 T01890128
10328 20183 50004





000
SAUS46 KSGX 010453
MTRCZZ
METAR KCZZ 010452Z AUTO 05003KT 21/14 A3003 RMK AO1 SLP133 T02060139





000
SAUS46 KSGX 010353
MTRCZZ
METAR KCZZ 010352Z AUTO 00000KT 23/16 A3002 RMK AO1 SLP132 T02280161





000
SAUS46 KSGX 010253
MTRCZZ
METAR KCZZ 010252Z AUTO 22007KT 24/16 A3001 RMK AO1 SLP128 T02390161
53004





000
SAUS46 KSGX 010153
MTRCZZ
METAR KCZZ 010152Z AUTO 20007KT 27/16 A2999 RMK AO1 SLP123 T02720156





000
SAUS46 KSGX 010053
MTRCZZ
METAR KCZZ 010052Z AUTO 26008KT 32/06 A2999 RMK AO1 SLP120 T03170061





000
SAUS46 KSGX 010053
MTRCZZ
METAR KCZZ 010052Z AUTO 26008KT 32/06 A2999 RMK AO1 SLP120 T03170061





000
SAUS46 KSGX 312353
MTRCZZ
METAR KCZZ 312352Z AUTO 27009KT 32/10 A3000 RMK AO1 SLP122 T03220100
10339 20300 56016





000
SAUS46 KSGX 312253
MTRCZZ
METAR KCZZ 312252Z AUTO 22010KT 33/11 A3001 RMK AO1 SLP127 T03280106





000
SAUS46 KSGX 312153
MTRCZZ
METAR KCZZ 312152Z AUTO 28006KT 33/04 A3003 RMK AO1 SLP131 T03330039





000
SAUS46 KSGX 312053
MTRCZZ
METAR KCZZ 312052Z AUTO 22006KT 32/05 A3005 RMK AO1 SLP138 T03220050
58009





000
SAUS46 KSGX 311953
MTRCZZ
METAR KCZZ 311952Z AUTO 19008KT 32/06 A3006 RMK AO1 SLP142 T03170061





000
SAUS46 KSGX 311953
MTRCZZ
METAR KCZZ 311952Z AUTO 19008KT 32/06 A3006 RMK AO1 SLP142 T03170061





000
SAUS46 KSGX 311853
MTRCZZ
METAR KCZZ 311852Z AUTO 22008KT 31/08 A3007 RMK AO1 SLP145 T03110078





000
SAUS46 KSGX 311753
MTRCZZ
METAR KCZZ 311752Z AUTO 22008KT 30/12 A3007 RMK AO1 SLP147 T03000122
10300 20156 56002





000
SAUS46 KSGX 311653
MTRCZZ
METAR KCZZ 311652Z AUTO 00000KT 28/13 A3007 RMK AO1 SLP147 T02830133





000
SAUS46 KSGX 311553
MTRCZZ
METAR KCZZ 311552Z AUTO 00000KT 26/15 A3008 RMK AO1 SLP150 T02560150





000
SAUS46 KSGX 311453
MTRCZZ
METAR KCZZ 311452Z AUTO 00000KT 22/15 A3008 RMK AO1 SLP153 T02170150
51010





000
SAUS46 KSGX 311453
MTRCZZ
METAR KCZZ 311452Z AUTO 00000KT 22/15 A3008 RMK AO1 SLP153 T02170150
51010





000
SAUS46 KSGX 311353
MTRCZZ
METAR KCZZ 311352Z AUTO 06005KT 17/14 A3008 RMK AO1 SLP153 T01720139
$





000
SAUS46 KSGX 311253
MTRCZZ
METAR KCZZ 311252Z AUTO 06004KT 16/13 A3006 RMK AO1 SLP146 T01560133
$





000
SAUS46 KSGX 311253
MTRCZZ
METAR KCZZ 311252Z AUTO 06004KT 16/13 A3006 RMK AO1 SLP146 T01560133
$





000
SAUS46 KSGX 311153
MTRCZZ
METAR KCZZ 311152Z AUTO 06005KT 17/13 A3005 RMK AO1 SLP141 7////
T01670133 10211 20161 56004 $





000
SAUS46 KSGX 311053
MTRCZZ
METAR KCZZ 311052Z AUTO 04006KT 17/14 A3005 RMK AO1 SLP141 T01670139
$





000
SAUS46 KSGX 310953
MTRCZZ
METAR KCZZ 310952Z AUTO 05004KT 18/14 A3005 RMK AO1 SLP140 T01780144
$





000
SAUS46 KSGX 310853
MTRCZZ
METAR KCZZ 310852Z AUTO 07004KT 19/15 A3006 RMK AO1 SLP143 T01890150
58005 $





000
SAUS46 KSGX 310853
MTRCZZ
METAR KCZZ 310852Z AUTO 07004KT 19/15 A3006 RMK AO1 SLP143 T01890150
58005 $





000
SAUS46 KSGX 310754
MTRCZZ
METAR KCZZ 310752Z AUTO 00000KT 20/15 A3008 RMK AO1 SLP146 T02000150
403330189 $





000
SAUS46 KSGX 310653
MTRCZZ
METAR KCZZ 310652Z AUTO 09004KT 20/16 A3008 RMK AO1 SLP150 T02000156
$





000
SAUS46 KSGX 310653
MTRCZZ
METAR KCZZ 310652Z AUTO 09004KT 20/16 A3008 RMK AO1 SLP150 T02000156
$





000
SAUS46 KSGX 310553
MTRCZZ
METAR KCZZ 310552Z AUTO 00000KT 21/15 A3008 RMK AO1 SLP149 T02110150
10317 20206 51010 $





000
SAUS46 KSGX 310553
MTRCZZ
METAR KCZZ 310552Z AUTO 00000KT 21/15 A3008 RMK AO1 SLP149 T02110150
10317 20206 51010 $





000
SAUS46 KSGX 310453
MTRCZZ
METAR KCZZ 310452Z AUTO 00000KT 22/16 A3008 RMK AO1 SLP147 T02220156
$





    US Dept of Commerce
    National Oceanic and Atmospheric Administration
    National Weather Service
    1325 East West Highway
    Silver Spring, MD 20910
    Page Author: NWS Internet Services Team
Disclaimer
Information Quality
Credits
Glossary
Privacy Policy
Freedom of Information Act (FOIA)
About Us
Career Opportunities